Garve, United Kingdom
Current Conditions -  °F | °C
As of 2:50 PM on Tuesday 21 Oct 2014 (Local Time) from EGPE Reporting Station
Rain Showers Rain Showers  
Wind Chill: 36°   Ceiling: 3200
Heat Index: 45°   Visibility: 6mi
Dew Point: 39°   Wind: 24mph
Humidity: 81%   Direction: 290°WNW
Pressure: 29.53"   Gusts: NA
Location:  57.68°N, 4.69°W
Report Text: EGPE 211350Z 29021KT 9999 7000NW -SHRA FEW008 SCT018CB BKN032 07/04 Q1000
Loading
Personal Weather Stations






























Interactive Weather Map
Tropical Storm Tracking
New forecast layout! Learn more

10-Day Weather Forecast

Advertisements
Track Severe Weather on mobile